Time;durP1;ratioP1;P1;durP2;ratioP2;P2;SDS_P1;SDS_P2;PMS_P1;PMS_P2;Temp;Humidity;BMP_temperature;BMP_pressure;BME280_temperature;BME280_humidity;BME280_pressure;Samples;Min_cycle;Max_cycle;Signal;HPM_P1;HPM_P2
2021/06/21 00:02:11;;;;;;;7.53;3.00;;;;;;;19.16;88.50;98644.87;1670974;85;21101;-79
2021/06/21 00:04:38;;;;;;;6.00;2.85;;;;;;;19.13;87.50;98638.48;1660840;85;21024;-79
2021/06/21 00:07:05;;;;;;;7.20;2.85;;;;;;;19.10;88.20;98634.75;1672225;85;21046;-79
2021/06/21 00:09:31;;;;;;;5.20;2.80;;;;;;;19.10;88.16;98630.80;1671958;85;21039;-79
2021/06/21 00:11:57;;;;;;;5.28;2.90;;;;;;;19.04;89.11;98631.22;1671533;84;21044;-79
2021/06/21 00:14:24;;;;;;;4.55;2.75;;;;;;;19.03;87.94;98630.83;1643818;86;20999;-79
2021/06/21 00:16:51;;;;;;;4.92;2.95;;;;;;;19.03;88.34;98633.47;1675475;84;21639;-79
2021/06/21 00:19:17;;;;;;;4.92;2.80;;;;;;;19.03;87.03;98630.34;1647549;86;21039;-79
2021/06/21 00:21:44;;;;;;;10.15;2.80;;;;;;;19.00;87.75;98633.20;1680081;84;21225;-79
2021/06/21 00:24:10;;;;;;;5.35;3.10;;;;;;;19.04;86.44;98633.85;1674741;84;22500;-80
2021/06/21 00:26:37;;;;;;;8.53;2.98;;;;;;;18.99;86.59;98628.03;1660393;86;21005;-79
2021/06/21 00:29:03;;;;;;;8.68;3.10;;;;;;;18.94;86.58;98631.44;1652331;87;21012;-79
2021/06/21 00:31:30;;;;;;;8.15;3.05;;;;;;;18.92;87.09;98628.06;1674950;85;21043;-79
2021/06/21 00:33:56;;;;;;;7.12;2.70;;;;;;;18.93;87.07;98617.91;1652029;87;20992;-79
2021/06/21 00:36:23;;;;;;;6.05;3.00;;;;;;;18.93;86.32;98623.18;1671962;85;21040;-79
2021/06/21 00:38:49;;;;;;;8.38;3.40;;;;;;;18.90;86.84;98623.38;1659344;85;22012;-79
2021/06/21 00:41:15;;;;;;;5.80;3.50;;;;;;;18.88;86.87;98618.23;1671899;85;21032;-78
2021/06/21 00:43:42;;;;;;;6.12;3.02;;;;;;;18.89;87.00;98619.90;1658960;85;21039;-79
2021/06/21 00:46:08;;;;;;;7.67;3.02;;;;;;;18.90;87.65;98623.38;1669239;85;21543;-78
2021/06/21 00:48:35;;;;;;;5.50;3.10;;;;;;;18.91;87.30;98619.80;1660132;85;20996;-79
2021/06/21 00:51:02;;;;;;;6.37;3.02;;;;;;;18.90;86.41;98607.56;1662589;86;21037;-79
2021/06/21 00:53:29;;;;;;;4.62;2.90;;;;;;;18.85;86.16;98602.14;1691514;84;21042;-79
2021/06/21 00:55:56;;;;;;;8.08;3.20;;;;;;;18.80;86.37;98604.70;1645022;86;21706;-79
2021/06/21 00:58:22;;;;;;;7.60;3.17;;;;;;;18.74;87.46;98609.89;1650061;86;21055;-79
2021/06/21 01:00:49;;;;;;;6.45;3.20;;;;;;;18.71;87.15;98612.72;1675662;85;21064;-79
2021/06/21 01:03:16;;;;;;;7.78;3.45;;;;;;;18.64;87.93;98608.80;1671172;85;22380;-79
2021/06/21 01:05:42;;;;;;;5.00;3.00;;;;;;;18.62;86.52;98615.95;1680913;85;21040;-79
2021/06/21 01:08:10;;;;;;;5.70;3.05;;;;;;;18.59;86.55;98618.80;1669804;85;21059;-79
2021/06/21 01:10:41;;;;;;;4.72;3.00;;;;;;;18.53;86.95;98620.52;1653886;84;21062;-79
2021/06/21 01:13:28;;;;;;;7.40;3.10;;;;;;;18.45;87.92;98619.70;1670703;85;21584;-79
2021/06/21 01:16:26;;;;;;;6.35;3.30;;;;;;;18.40;88.39;98618.69;1681828;85;21098;-79
2021/06/21 01:18:58;;;;;;;6.20;3.52;;;;;;;18.37;87.00;98620.19;1673557;85;21408;-79
2021/06/21 01:22:04;;;;;;;6.35;3.55;;;;;;;18.31;86.64;98619.27;1687237;84;21059;-79
2021/06/21 01:24:52;;;;;;;4.85;3.10;;;;;;;18.19;88.55;98618.27;1637461;86;21091;-79
2021/06/21 01:27:42;;;;;;;6.45;3.20;;;;;;;18.14;89.11;98612.92;1664356;85;21031;-78
2021/06/21 01:30:12;;;;;;;5.72;3.25;;;;;;;18.09;89.55;98624.59;1656466;85;21032;-79
2021/06/21 01:33:00;;;;;;;8.90;3.58;;;;;;;18.04;91.34;98625.33;1661837;85;21066;-78
2021/06/21 01:35:56;;;;;;;6.72;3.60;;;;;;;18.06;89.55;98619.98;1661243;85;21068;-78
2021/06/21 01:38:39;;;;;;;5.40;3.42;;;;;;;18.05;91.05;98618.31;1660927;85;21326;-80
2021/06/21 01:41:11;;;;;;;6.00;3.42;;;;;;;18.06;90.21;98623.48;1633395;87;21540;-78
2021/06/21 01:43:40;;;;;;;6.90;3.42;;;;;;;18.08;90.29;98622.91;1617976;87;21036;-79
2021/06/21 01:46:11;;;;;;;7.10;3.40;;;;;;;18.06;90.48;98623.48;1667207;85;21163;-79
2021/06/21 01:48:43;;;;;;;5.60;3.30;;;;;;;18.09;89.71;98621.95;1659509;85;21170;-78
2021/06/21 01:51:11;;;;;;;5.90;3.42;;;;;;;18.07;90.80;98619.06;1678158;85;21051;-79
2021/06/21 01:53:39;;;;;;;7.40;3.55;;;;;;;18.08;90.23;98624.23;1657514;85;21408;-78
2021/06/21 01:56:23;;;;;;;9.55;3.87;;;;;;;18.08;90.36;98633.88;1677786;85;21075;-78
2021/06/21 01:58:53;;;;;;;5.92;3.67;;;;;;;18.07;91.21;98629.58;1655565;85;21115;-78
2021/06/21 02:01:21;;;;;;;7.35;3.85;;;;;;;18.08;90.21;98620.28;1679720;85;21437;-78
2021/06/21 02:04:01;;;;;;;7.72;3.52;;;;;;;18.09;90.00;98625.91;1656455;85;21111;-78
2021/06/21 02:06:31;;;;;;;8.98;3.80;;;;;;;18.09;91.11;98618.48;1643238;85;21035;-79
2021/06/21 02:09:01;;;;;;;8.05;3.30;;;;;;;18.05;88.92;98628.35;1646572;86;21051;-78
2021/06/21 02:11:28;;;;;;;8.98;3.12;;;;;;;18.04;89.26;98624.50;1659638;85;21066;-78
2021/06/21 02:13:56;;;;;;;7.20;4.10;;;;;;;18.01;91.66;98622.91;1672669;84;21038;-79
2021/06/21 02:16:25;;;;;;;10.95;4.40;;;;;;;18.01;90.02;98621.59;1678366;84;21023;-78
2021/06/21 02:18:53;;;;;;;9.38;3.85;;;;;;;17.99;91.18;98612.13;1672348;84;21042;-78
2021/06/21 02:21:21;;;;;;;6.67;3.90;;;;;;;17.99;90.92;98615.59;1665331;86;21058;-78
2021/06/21 02:23:50;;;;;;;8.53;3.50;;;;;;;17.95;91.33;98619.84;1653383;86;21078;-78
2021/06/21 02:26:24;;;;;;;7.83;3.60;;;;;;;17.95;89.88;98623.78;1649001;86;20984;-79
2021/06/21 02:29:01;;;;;;;6.62;3.90;;;;;;;17.93;90.87;98621.72;1681609;85;21107;-78
2021/06/21 02:31:29;;;;;;;5.03;3.40;;;;;;;17.95;91.07;98611.95;1677455;84;21016;-78
2021/06/21 02:33:56;;;;;;;6.97;3.62;;;;;;;17.88;91.81;98611.47;1662085;85;21008;-78
2021/06/21 02:36:23;;;;;;;6.28;3.60;;;;;;;17.88;90.59;98614.09;1674023;85;21004;-80
2021/06/21 02:38:51;;;;;;;7.67;3.70;;;;;;;17.86;91.06;98612.88;1661998;85;21071;-78
2021/06/21 02:41:18;;;;;;;10.45;3.67;;;;;;;17.86;90.72;98612.03;1652847;85;21051;-78
2021/06/21 02:43:44;;;;;;;7.62;3.90;;;;;;;17.85;90.84;98613.83;1661782;85;21051;-79
2021/06/21 02:46:11;;;;;;;7.40;3.58;;;;;;;17.88;90.79;98610.99;1657757;86;21035;-79
2021/06/21 02:48:40;;;;;;;6.70;3.37;;;;;;;17.91;91.34;98615.23;1661879;84;21063;-79
2021/06/21 02:51:11;;;;;;;8.35;4.08;;;;;;;17.89;91.75;98615.80;1681832;85;20980;-78
2021/06/21 02:54:00;;;;;;;5.42;3.40;;;;;;;17.91;91.28;98611.29;1657328;84;21064;-78
2021/06/21 02:56:58;;;;;;;5.00;3.58;;;;;;;17.95;90.34;98615.41;1664700;85;21031;-78
2021/06/21 02:59:25;;;;;;;6.30;3.67;;;;;;;17.97;90.76;98614.84;1664145;85;21086;-78
2021/06/21 03:01:55;;;;;;;7.58;3.90;;;;;;;17.96;91.00;98613.14;1656884;85;21594;-79
2021/06/21 03:04:23;;;;;;;13.90;3.67;;;;;;;17.96;91.00;98613.14;1663478;85;21031;-79
2021/06/21 03:06:51;;;;;;;7.30;3.52;;;;;;;18.02;89.90;98604.86;1668074;84;21048;-78
2021/06/21 03:09:20;;;;;;;10.05;4.05;;;;;;;18.05;89.87;98608.63;1660627;85;20979;-79
2021/06/21 03:11:51;;;;;;;5.40;3.55;;;;;;;18.05;90.02;98605.16;1648543;85;21067;-80
2021/06/21 03:14:24;;;;;;;8.48;3.47;;;;;;;18.07;89.74;98609.85;1648546;86;21023;-79
2021/06/21 03:16:56;;;;;;;6.35;3.52;;;;;;;18.05;90.30;98609.11;1672547;85;20999;-79
2021/06/21 03:19:25;;;;;;;6.90;3.80;;;;;;;18.05;90.25;98602.53;1688154;84;21069;-79
2021/06/21 03:21:51;;;;;;;5.97;4.00;;;;;;;18.05;90.04;98603.36;1710287;84;21075;-79
2021/06/21 03:24:23;;;;;;;8.90;3.42;;;;;;;18.10;89.26;98605.70;1664100;85;21022;-80
2021/06/21 03:26:50;;;;;;;6.50;3.45;;;;;;;18.08;90.70;98607.58;1691941;84;21411;-81
2021/06/21 03:29:19;;;;;;;8.03;3.52;;;;;;;18.09;90.70;98609.28;1696955;84;21032;-78
2021/06/21 03:31:49;;;;;;;6.12;3.47;;;;;;;18.14;89.51;98601.09;1710875;84;21819;-80
2021/06/21 03:34:18;;;;;;;6.53;3.62;;;;;;;18.08;90.73;98598.37;1682101;84;20972;-79
2021/06/21 03:36:45;;;;;;;8.08;3.95;;;;;;;18.05;90.63;98599.91;1709308;84;21074;-80
2021/06/21 03:39:12;;;;;;;6.78;3.90;;;;;;;18.08;90.01;98609.77;1694614;84;20959;-82
2021/06/21 03:41:39;;;;;;;5.85;3.50;;;;;;;18.13;90.12;98619.98;1708534;84;21392;-82
2021/06/21 03:44:06;;;;;;;6.85;3.17;;;;;;;18.18;89.89;98624.94;1652560;86;21007;-80
2021/06/21 03:46:32;;;;;;;5.95;3.27;;;;;;;18.25;89.66;98627.56;1645321;87;21075;-79
2021/06/21 03:48:59;;;;;;;4.92;3.47;;;;;;;18.27;88.82;98621.73;1676835;85;21868;-80
2021/06/21 03:51:26;;;;;;;6.35;3.35;;;;;;;18.34;88.83;98619.54;1694669;84;21353;-80
2021/06/21 03:53:53;;;;;;;7.25;3.47;;;;;;;18.39;89.02;98616.98;1678298;84;21898;-81
2021/06/21 03:56:20;;;;;;;10.78;4.00;;;;;;;18.51;88.31;98630.30;1689450;84;21035;-80
2021/06/21 03:58:48;;;;;;;5.87;3.27;;;;;;;18.56;88.92;98630.83;1676741;84;20996;-80
2021/06/21 04:01:15;;;;;;;9.85;3.92;;;;;;;18.62;88.24;98633.93;1656828;84;21598;-80
2021/06/21 04:03:43;;;;;;;8.65;3.58;;;;;;;18.62;87.87;98638.33;1675667;84;21551;-78
2021/06/21 04:06:10;;;;;;;5.72;3.65;;;;;;;18.67;87.57;98639.72;1696750;84;21382;-80
2021/06/21 04:08:38;;;;;;;4.83;3.42;;;;;;;18.69;86.93;98634.36;1676244;84;21030;-80
2021/06/21 04:11:04;;;;;;;7.53;3.67;;;;;;;18.67;86.47;98634.94;1643482;87;21031;-79
2021/06/21 04:13:30;;;;;;;6.05;3.83;;;;;;;18.64;86.29;98633.35;1644485;86;21530;-79
2021/06/21 04:15:57;;;;;;;7.55;3.70;;;;;;;18.67;86.75;98634.94;1673914;85;20996;-80
2021/06/21 04:18:24;;;;;;;10.43;3.37;;;;;;;18.70;86.98;98629.45;1661695;85;20989;-81
2021/06/21 04:20:51;;;;;;;6.33;3.58;;;;;;;18.70;86.71;98628.13;1671814;85;21532;-79
2021/06/21 04:23:18;;;;;;;8.18;3.30;;;;;;;18.73;86.77;98627.94;1661774;85;21101;-78
2021/06/21 04:25:44;;;;;;;5.97;3.45;;;;;;;18.75;86.83;98626.53;1669393;85;21080;-78
2021/06/21 04:28:10;;;;;;;5.70;3.10;;;;;;;18.84;86.23;98632.52;1668000;85;20992;-79
2021/06/21 04:30:37;;;;;;;7.03;3.52;;;;;;;18.92;86.06;98632.88;1653601;85;21021;-79
2021/06/21 04:33:04;;;;;;;6.55;3.47;;;;;;;18.97;85.94;98635.20;1661839;84;21019;-79
2021/06/21 04:35:32;;;;;;;5.15;3.17;;;;;;;19.05;85.76;98633.72;1661464;85;21063;-79
2021/06/21 04:37:58;;;;;;;5.83;3.20;;;;;;;19.12;85.98;98635.94;1667120;85;21091;-79
2021/06/21 04:40:30;;;;;;;7.37;3.77;;;;;;;19.20;85.41;98646.35;1671699;84;21134;-79
2021/06/21 04:42:56;;;;;;;6.50;3.55;;;;;;;19.34;85.40;98645.41;1662956;85;21039;-79
2021/06/21 04:45:23;;;;;;;8.25;3.37;;;;;;;19.38;84.71;98644.73;1669674;85;21329;-79
2021/06/21 04:47:50;;;;;;;7.47;3.05;;;;;;;19.42;84.41;98646.21;1667213;85;21011;-79
2021/06/21 04:50:18;;;;;;;6.90;3.30;;;;;;;19.53;84.62;98648.94;1663665;85;21624;-79
2021/06/21 04:52:48;;;;;;;10.58;3.52;;;;;;;19.65;83.95;98650.71;1659273;85;20995;-80
2021/06/21 04:55:18;;;;;;;4.62;3.10;;;;;;;19.78;82.83;98652.07;1656501;85;21110;-78
2021/06/21 04:57:45;;;;;;;9.08;4.30;;;;;;;19.93;83.07;98651.45;1653215;85;21586;-79
2021/06/21 05:00:16;;;;;;;6.30;3.40;;;;;;;20.10;82.91;98650.75;1670334;85;21016;-79
2021/06/21 05:02:43;;;;;;;6.92;3.70;;;;;;;20.22;81.55;98649.39;1675359;85;20976;-79
2021/06/21 05:05:11;;;;;;;7.17;3.50;;;;;;;20.29;80.58;98644.50;1668236;85;21036;-79
2021/06/21 05:07:39;;;;;;;6.72;3.60;;;;;;;20.34;79.49;98637.59;1673915;85;21071;-78
2021/06/21 05:10:08;;;;;;;5.45;3.40;;;;;;;20.30;80.28;98633.48;1666671;85;21946;-78
2021/06/21 05:12:35;;;;;;;6.72;3.42;;;;;;;20.36;80.12;98633.88;1677291;85;22226;-79
2021/06/21 05:15:03;;;;;;;7.42;3.62;;;;;;;20.31;79.89;98648.35;1665763;85;20999;-78
2021/06/21 05:17:29;;;;;;;7.10;3.55;;;;;;;20.34;79.89;98646.83;1684953;84;21054;-78
2021/06/21 05:19:56;;;;;;;7.58;3.60;;;;;;;20.38;79.71;98652.25;1662500;85;21032;-78
2021/06/21 05:22:23;;;;;;;4.20;2.87;;;;;;;20.38;79.26;98651.77;1677241;84;21102;-78
2021/06/21 05:24:49;;;;;;;6.67;3.50;;;;;;;20.43;79.86;98667.26;1640131;86;21067;-79
2021/06/21 05:27:16;;;;;;;9.18;3.90;;;;;;;20.48;79.39;98661.66;1686944;85;21026;-79
2021/06/21 05:29:42;;;;;;;8.15;3.52;;;;;;;20.57;79.43;98668.44;1657250;85;21088;-79
2021/06/21 05:32:09;;;;;;;7.30;3.22;;;;;;;20.60;78.88;98662.11;1688564;84;21514;-80
2021/06/21 05:34:36;;;;;;;6.85;3.95;;;;;;;20.50;78.21;98666.36;1630946;86;21015;-79
2021/06/21 05:37:03;;;;;;;7.42;3.77;;;;;;;20.47;78.65;98664.76;1689534;85;21219;-79
2021/06/21 05:39:30;;;;;;;9.80;3.98;;;;;;;20.40;78.63;98662.22;1643146;86;21126;-78
2021/06/21 05:41:56;;;;;;;5.45;3.40;;;;;;;20.32;78.83;98669.37;1656203;86;21027;-80
2021/06/21 05:44:23;;;;;;;6.83;3.77;;;;;;;20.30;78.84;98657.23;1634041;86;21039;-78
2021/06/21 05:46:49;;;;;;;6.03;3.72;;;;;;;20.28;78.92;98661.30;1636485;86;21031;-78
2021/06/21 05:49:15;;;;;;;8.88;3.85;;;;;;;20.24;78.89;98661.16;1646466;86;22000;-78
2021/06/21 05:51:42;;;;;;;5.15;3.08;;;;;;;20.24;78.90;98659.84;1693857;84;20987;-79
2021/06/21 05:54:09;;;;;;;6.05;3.37;;;;;;;20.23;79.36;98650.22;1642702;86;21109;-78
2021/06/21 05:56:35;;;;;;;5.30;3.58;;;;;;;20.24;78.59;98648.80;1646466;86;21043;-78
2021/06/21 05:59:02;;;;;;;5.40;3.70;;;;;;;20.26;78.82;98660.57;1667736;85;21071;-78
2021/06/21 06:01:28;;;;;;;6.15;3.37;;;;;;;20.30;79.06;98667.31;1643798;86;21028;-78
2021/06/21 06:03:55;;;;;;;8.45;3.60;;;;;;;20.38;78.26;98670.24;1641186;86;21583;-79
2021/06/21 06:06:22;;;;;;;10.38;3.05;;;;;;;20.42;78.55;98665.10;1643745;85;21027;-79
2021/06/21 06:08:49;;;;;;;4.87;2.90;;;;;;;20.56;78.66;98662.78;1686515;85;21654;-79
2021/06/21 06:11:16;;;;;;;6.45;3.37;;;;;;;20.59;78.35;98656.45;1632450;86;22124;-78
2021/06/21 06:13:42;;;;;;;5.42;3.45;;;;;;;20.62;78.27;98656.24;1643671;86;21116;-78
2021/06/21 06:16:08;;;;;;;5.87;3.70;;;;;;;20.67;78.34;98655.41;1654865;85;21032;-78
2021/06/21 06:18:35;;;;;;;8.25;3.60;;;;;;;20.70;77.26;98653.88;1662691;85;21054;-78
2021/06/21 06:21:02;;;;;;;7.80;3.62;;;;;;;20.74;77.37;98656.66;1658781;86;21582;-78
2021/06/21 06:23:29;;;;;;;5.28;3.40;;;;;;;20.82;77.67;98664.84;1668096;85;21138;-78
2021/06/21 06:25:55;;;;;;;5.15;3.58;;;;;;;20.88;76.87;98658.76;1638423;87;21051;-79
2021/06/21 06:28:22;;;;;;;5.87;3.47;;;;;;;20.92;76.52;98652.28;1669726;85;21554;-78
2021/06/21 06:30:49;;;;;;;6.53;3.08;;;;;;;21.01;76.89;98662.17;1654024;86;21058;-78
2021/06/21 06:33:15;;;;;;;5.90;3.62;;;;;;;21.07;76.26;98663.03;1676412;85;21534;-78
2021/06/21 06:35:42;;;;;;;5.58;3.65;;;;;;;21.10;76.62;98665.43;1665524;86;21145;-78
2021/06/21 06:38:09;;;;;;;6.28;3.67;;;;;;;21.10;76.40;98661.95;1675471;85;21015;-79
2021/06/21 06:40:35;;;;;;;9.13;3.72;;;;;;;21.21;76.70;98665.96;1665701;86;21594;-78
2021/06/21 06:43:02;;;;;;;4.97;3.50;;;;;;;21.25;76.35;98664.28;1674481;85;21035;-78
2021/06/21 06:45:28;;;;;;;5.25;3.42;;;;;;;21.33;76.34;98668.98;1679320;85;21055;-78
2021/06/21 06:47:55;;;;;;;6.22;3.47;;;;;;;21.52;76.80;98667.11;1675815;85;21042;-78
2021/06/21 06:50:21;;;;;;;7.83;3.40;;;;;;;21.70;76.06;98671.95;1652895;86;21069;-79
2021/06/21 06:52:49;;;;;;;4.95;3.17;;;;;;;21.84;74.70;98664.63;1680132;85;21039;-78
2021/06/21 06:58:00;;;;;;;5.45;3.02;;;;;;;21.99;73.69;98663.89;1663377;85;21014;-78
2021/06/21 07:00:27;;;;;;;4.75;3.00;;;;;;;22.02;73.60;98657.50;1639327;86;21019;-78
2021/06/21 07:02:54;;;;;;;4.87;2.50;;;;;;;22.12;73.44;98658.94;1676689;85;21546;-79
2021/06/21 07:05:20;;;;;;;5.22;3.02;;;;;;;22.22;72.43;98652.81;1654541;86;21007;-80
2021/06/21 07:07:47;;;;;;;5.08;2.77;;;;;;;22.31;73.21;98650.41;1682808;85;21078;-78
2021/06/21 07:10:14;;;;;;;4.00;2.22;;;;;;;22.43;73.34;98640.14;1675516;85;20995;-78
2021/06/21 07:12:40;;;;;;;5.40;2.98;;;;;;;22.50;72.96;98636.50;1680140;85;21018;-79
2021/06/21 07:15:08;;;;;;;4.62;2.65;;;;;;;22.59;72.34;98636.59;1663405;85;21126;-79
2021/06/21 07:17:35;;;;;;;3.65;2.70;;;;;;;22.52;69.88;98632.78;1668927;85;21043;-79
2021/06/21 07:20:03;;;;;;;4.78;2.50;;;;;;;22.61;71.38;98633.33;1651962;85;21036;-79
2021/06/21 07:22:30;;;;;;;8.18;2.58;;;;;;;22.68;70.89;98637.66;1670018;85;21087;-79
2021/06/21 07:24:57;;;;;;;4.67;2.62;;;;;;;22.80;71.53;98633.99;1660277;85;21519;-78
2021/06/21 07:27:25;;;;;;;4.03;2.47;;;;;;;22.93;71.54;98637.77;1671268;85;21127;-79
2021/06/21 07:29:53;;;;;;;5.00;2.40;;;;;;;23.03;71.19;98634.73;1656928;85;21527;-78
2021/06/21 07:32:20;;;;;;;7.40;2.70;;;;;;;23.13;69.64;98633.98;1673284;85;20976;-78
2021/06/21 07:34:47;;;;;;;4.90;2.70;;;;;;;23.17;69.94;98642.02;1649930;87;21016;-78
2021/06/21 07:37:13;;;;;;;6.17;2.45;;;;;;;23.27;70.45;98643.42;1650327;85;22039;-79
2021/06/21 07:39:40;;;;;;;6.10;2.80;;;;;;;23.38;68.94;98653.97;1662044;85;21004;-79
2021/06/21 07:42:07;;;;;;;4.35;2.60;;;;;;;23.25;68.01;98648.02;1651624;85;21556;-78
2021/06/21 07:44:35;;;;;;;5.47;2.77;;;;;;;23.20;68.17;98641.78;1622327;87;21043;-78
2021/06/21 07:47:02;;;;;;;5.78;2.65;;;;;;;23.29;68.54;98642.80;1634808;87;21063;-78
2021/06/21 07:49:29;;;;;;;5.75;2.90;;;;;;;23.40;69.36;98644.90;1660070;85;21032;-79
2021/06/21 07:51:56;;;;;;;4.62;2.62;;;;;;;23.50;68.90;98642.30;1634005;87;21008;-79
2021/06/21 07:54:23;;;;;;;4.47;2.92;;;;;;;23.57;68.84;98639.45;1653566;85;21019;-78
2021/06/21 07:56:50;;;;;;;5.62;2.92;;;;;;;23.59;68.28;98644.14;1646962;85;21047;-78
2021/06/21 07:59:16;;;;;;;4.90;2.70;;;;;;;23.59;67.88;98638.00;1654824;85;21309;-78
2021/06/21 08:01:43;;;;;;;6.72;2.92;;;;;;;23.54;66.46;98637.09;1664666;85;21095;-78
2021/06/21 08:04:09;;;;;;;4.20;2.62;;;;;;;23.60;68.07;98636.55;1653815;85;21023;-79
2021/06/21 08:06:37;;;;;;;5.20;2.80;;;;;;;23.64;67.32;98631.83;1623108;87;20996;-79
2021/06/21 08:09:04;;;;;;;3.75;2.60;;;;;;;23.63;67.62;98637.63;1653854;85;21059;-78
2021/06/21 08:11:31;;;;;;;4.33;2.80;;;;;;;23.62;66.78;98635.94;1678303;85;21028;-78
2021/06/21 08:13:57;;;;;;;5.35;2.52;;;;;;;23.68;66.81;98643.86;1654012;85;21099;-78
2021/06/21 08:16:25;;;;;;;3.72;2.47;;;;;;;23.77;66.97;98632.92;1674974;85;21023;-78
2021/06/21 08:18:52;;;;;;;7.67;2.72;;;;;;;23.95;67.32;98644.61;1659670;85;21004;-79
2021/06/21 08:21:19;;;;;;;4.62;2.40;;;;;;;24.03;65.70;98641.28;1635246;87;21141;-79
2021/06/21 08:23:45;;;;;;;5.10;2.75;;;;;;;24.13;66.77;98641.31;1659943;85;22116;-78
2021/06/21 08:26:12;;;;;;;7.00;2.22;;;;;;;24.17;65.28;98645.37;1672239;85;21052;-78
2021/06/21 08:28:38;;;;;;;4.67;2.55;;;;;;;24.25;66.99;98629.59;1660130;85;21606;-78
2021/06/21 08:31:05;;;;;;;4.97;2.62;;;;;;;24.40;66.15;98636.70;1613379;87;21100;-78
2021/06/21 08:33:32;;;;;;;4.75;2.70;;;;;;;24.55;64.51;98633.16;1660469;85;21052;-79
2021/06/21 08:35:58;;;;;;;3.58;2.42;;;;;;;24.66;62.73;98633.05;1612844;89;21078;-79
2021/06/21 08:38:25;;;;;;;7.45;2.70;;;;;;;24.88;64.60;98635.91;1658575;85;21927;-79
2021/06/21 08:40:51;;;;;;;4.60;2.52;;;;;;;24.99;64.23;98634.94;1626200;87;21035;-79
2021/06/21 08:43:19;;;;;;;3.72;2.52;;;;;;;25.14;62.22;98625.52;1662549;85;21015;-79
2021/06/21 08:45:47;;;;;;;4.62;2.50;;;;;;;25.24;60.64;98632.69;1657466;85;21043;-78
2021/06/21 08:48:13;;;;;;;4.03;2.40;;;;;;;25.44;63.22;98638.30;1657021;85;21019;-79
2021/06/21 08:50:41;;;;;;;5.60;2.70;;;;;;;25.57;61.49;98631.34;1669262;85;21023;-79
2021/06/21 08:53:10;;;;;;;3.37;2.35;;;;;;;25.70;62.12;98632.33;1665699;85;21039;-79
2021/06/21 08:55:37;;;;;;;4.25;2.40;;;;;;;25.84;60.83;98629.19;1656758;85;21051;-79
2021/06/21 08:58:04;;;;;;;8.78;2.75;;;;;;;25.99;62.11;98626.92;1665447;85;21044;-79
2021/06/21 09:00:31;;;;;;;10.13;2.70;;;;;;;26.12;61.28;98621.23;1653482;85;21063;-78
2021/06/21 09:03:02;;;;;;;3.60;2.52;;;;;;;26.22;61.47;98622.00;1653629;85;21047;-78
2021/06/21 09:05:35;;;;;;;5.10;2.33;;;;;;;26.35;61.05;98618.48;1652539;85;21015;-79
2021/06/21 09:08:05;;;;;;;3.27;2.40;;;;;;;26.45;59.41;98613.59;1667459;85;21559;-79
2021/06/21 09:10:35;;;;;;;4.33;2.42;;;;;;;26.59;59.73;98619.76;1612716;87;21031;-80
2021/06/21 09:13:10;;;;;;;5.47;2.65;;;;;;;26.73;59.39;98623.22;1625856;87;21055;-79
2021/06/21 09:15:41;;;;;;;4.03;2.50;;;;;;;26.82;59.48;98622.81;1678379;85;21554;-79
2021/06/21 09:18:35;;;;;;;4.37;2.33;;;;;;;26.68;59.67;98616.66;1672704;85;21075;-79
2021/06/21 09:21:27;;;;;;;4.65;2.87;;;;;;;26.83;60.58;98622.30;1686938;85;21907;-80
2021/06/21 09:23:58;;;;;;;5.28;2.75;;;;;;;26.94;59.96;98620.74;1663272;85;21004;-80
2021/06/21 09:26:31;;;;;;;5.10;2.50;;;;;;;27.04;59.05;98630.82;1656561;86;21872;-79
2021/06/21 09:29:00;;;;;;;4.42;2.55;;;;;;;27.05;59.22;98634.32;1673022;85;21047;-79
2021/06/21 09:31:28;;;;;;;3.60;2.50;;;;;;;27.15;59.26;98627.05;1668726;85;21075;-80
2021/06/21 09:34:13;;;;;;;4.33;2.62;;;;;;;27.02;56.16;98626.61;1670770;85;21138;-79
2021/06/21 09:36:40;;;;;;;3.98;2.90;;;;;;;27.00;58.14;98622.79;1612128;88;21035;-78
2021/06/21 09:39:24;;;;;;;3.67;2.70;;;;;;;26.89;57.86;98619.85;1666470;85;21915;-79
2021/06/21 09:42:23;;;;;;;4.37;2.80;;;;;;;26.92;58.10;98615.55;1658130;86;21075;-79
2021/06/21 09:44:57;;;;;;;4.60;2.60;;;;;;;27.01;58.24;98611.11;1646112;86;21047;-79
2021/06/21 09:47:37;;;;;;;5.92;2.90;;;;;;;27.10;55.56;98612.03;1688276;84;21074;-79
2021/06/21 09:50:18;;;;;;;4.17;2.77;;;;;;;27.10;57.17;98608.02;1675618;85;21103;-80
2021/06/21 09:53:00;;;;;;;4.53;2.90;;;;;;;27.08;56.68;98604.17;1672565;85;21387;-79
2021/06/21 09:55:34;;;;;;;4.42;2.52;;;;;;;27.08;56.79;98601.50;1658515;85;21083;-79
2021/06/21 09:58:21;;;;;;;4.87;2.80;;;;;;;27.15;56.56;98592.37;1668854;85;21004;-79
2021/06/21 10:00:51;;;;;;;5.40;2.87;;;;;;;27.26;56.71;98593.98;1649583;85;21534;-79
2021/06/21 10:03:26;;;;;;;3.40;2.40;;;;;;;27.34;54.61;98591.37;1669883;85;21063;-79
2021/06/21 10:06:12;;;;;;;3.80;2.60;;;;;;;27.54;55.26;98591.98;1658560;85;21043;-80
2021/06/21 10:08:48;;;;;;;7.35;3.15;;;;;;;27.89;56.08;98592.30;1676018;85;21023;-80
2021/06/21 10:11:37;;;;;;;4.70;2.98;;;;;;;28.16;53.33;98594.41;1640349;86;21043;-79
2021/06/21 10:14:10;;;;;;;4.70;2.40;;;;;;;28.43;54.89;98586.62;1637182;86;21103;-79
2021/06/21 10:16:38;;;;;;;5.62;2.55;;;;;;;28.85;54.12;98587.00;1614231;88;21028;-80
2021/06/21 10:19:07;;;;;;;5.28;2.60;;;;;;;29.30;53.97;98571.41;1658723;85;21126;-79
2021/06/21 10:21:36;;;;;;;5.70;2.70;;;;;;;29.46;49.77;98579.38;1658663;86;21148;-80
2021/06/21 10:24:04;;;;;;;4.28;2.37;;;;;;;29.67;50.23;98584.69;1674468;85;21086;-80
2021/06/21 10:26:31;;;;;;;4.37;2.45;;;;;;;29.73;51.61;98585.37;1658834;86;22158;-80
2021/06/21 10:28:59;;;;;;;6.85;2.70;;;;;;;29.87;50.25;98580.61;1642913;86;21662;-80
2021/06/21 10:31:27;;;;;;;3.75;2.60;;;;;;;29.86;51.14;98580.27;1642446;86;21044;-80
2021/06/21 10:34:04;;;;;;;3.87;2.52;;;;;;;29.76;50.42;98576.14;1669770;85;21507;-80
2021/06/21 10:36:51;;;;;;;5.10;2.90;;;;;;;29.83;49.91;98588.67;1631138;87;21814;-80
2021/06/21 10:39:22;;;;;;;3.72;2.60;;;;;;;29.77;49.83;98594.73;1634689;86;21112;-79
2021/06/21 10:42:12;;;;;;;5.55;2.65;;;;;;;29.46;48.26;98598.13;1628697;88;21047;-79
2021/06/21 10:44:51;;;;;;;5.67;3.30;;;;;;;29.51;50.14;98593.62;1677373;85;21054;-79
2021/06/21 10:47:43;;;;;;;4.35;2.70;;;;;;;29.47;50.38;98590.44;1622755;86;21003;-80
2021/06/21 10:50:20;;;;;;;4.58;2.90;;;;;;;29.32;48.78;98588.12;1664596;85;21064;-80
2021/06/21 10:52:55;;;;;;;3.70;2.67;;;;;;;29.20;49.84;98594.34;1684402;85;21039;-80
2021/06/21 10:55:32;;;;;;;3.62;2.47;;;;;;;29.15;50.56;98592.19;1665476;85;21114;-79
2021/06/21 10:58:12;;;;;;;5.47;2.60;;;;;;;29.02;50.18;98581.13;1633307;86;21641;-79
2021/06/21 11:00:52;;;;;;;5.62;3.08;;;;;;;29.04;50.92;98583.13;1664375;85;21051;-80
2021/06/21 11:03:33;;;;;;;6.28;2.80;;;;;;;28.94;50.69;98581.96;1679318;84;21003;-80
2021/06/21 11:06:22;;;;;;;4.37;2.80;;;;;;;28.86;50.97;98585.98;1652987;86;21021;-79
2021/06/21 11:08:57;;;;;;;4.28;2.50;;;;;;;28.62;49.43;98590.00;1654889;85;21084;-79
2021/06/21 11:11:43;;;;;;;4.15;3.00;;;;;;;28.39;50.86;98595.11;1634924;86;21091;-79
2021/06/21 11:14:18;;;;;;;9.83;2.80;;;;;;;28.16;51.42;98608.59;1635111;86;21407;-79
2021/06/21 11:16:47;;;;;;;5.80;2.67;;;;;;;27.91;51.11;98617.05;1650805;86;21008;-81
2021/06/21 11:19:24;;;;;;;5.15;2.20;;;;;;;27.72;52.00;98606.58;1667340;85;21038;-80
2021/06/21 11:21:59;;;;;;;3.85;2.42;;;;;;;27.50;52.07;98599.45;1645236;86;21213;-81
2021/06/21 11:24:48;;;;;;;8.53;3.05;;;;;;;27.38;52.44;98591.39;1654368;86;21035;-80
2021/06/21 11:27:28;;;;;;;23.12;13.40;;;;;;;27.15;53.04;98595.03;1659131;86;21114;-80
2021/06/21 11:29:58;;;;;;;6.85;2.80;;;;;;;27.05;53.59;98595.64;1624606;86;21075;-80
2021/06/21 11:32:26;;;;;;;9.90;2.58;;;;;;;26.74;54.30;98582.72;1656459;86;22377;-81
2021/06/21 11:35:01;;;;;;;4.70;3.10;;;;;;;26.55;54.68;98579.20;1637215;86;21368;-79
2021/06/21 11:37:44;;;;;;;6.28;3.20;;;;;;;26.56;55.17;98581.36;1655546;86;21059;-79
2021/06/21 11:40:21;;;;;;;6.03;3.20;;;;;;;26.18;57.79;98585.52;1633931;86;21019;-80
2021/06/21 11:43:06;;;;;;;7.08;3.77;;;;;;;26.11;59.55;98588.93;1674902;85;21559;-78
2021/06/21 11:45:59;;;;;;;6.33;3.10;;;;;;;26.20;60.07;98602.66;1651640;85;21043;-78
2021/06/21 11:48:33;;;;;;;5.17;3.02;;;;;;;26.21;58.97;98593.70;1678491;85;21039;-79
2021/06/21 11:51:11;;;;;;;4.05;2.92;;;;;;;26.18;59.30;98575.34;1646851;86;21009;-79
2021/06/21 11:53:45;;;;;;;5.75;3.20;;;;;;;26.12;59.08;98578.61;1642693;86;21083;-79